DLH5ME EBAW-EGKK
Flight info
| Callsign | DLH5ME |
|---|---|
| Flight time | 0h 37m |
| Altitude | 30000 |
| Route | NIK L610 TEBRA |
| Aircraft | A20N/M-SDE2E3FGHIRWXY/LB1 |
Departure
| Time | 2026-04-16 10:16 |
|---|---|
| Airport | Antwerp International Airport (Deurne) (EBAW) |
Arrival
| Time | 2026-04-16 10:53 |
|---|---|
| Airport | London Gatwick Airport (EGKK) |
| Time | Latitude | Longitude | Altitude | Speed | Heading |
|---|---|---|---|---|---|
| 2026-04-16 09:52 | 51.18838 | 4.45353 | 49 ft | 0 kts | 151° |
| 2026-04-16 10:08 | 51.18837 | 4.45354 | 49 ft | 1 kts | 151° |
| 2026-04-16 10:12 | 51.18824 | 4.45375 | 48 ft | 6 kts | 129° |
| 2026-04-16 10:13 | 51.18792 | 4.45444 | 48 ft | 10 kts | 127° |
| 2026-04-16 10:13 | 51.18750 | 4.45556 | 50 ft | 14 kts | 108° |
| 2026-04-16 10:13 | 51.18721 | 4.45729 | 49 ft | 18 kts | 103° |
| 2026-04-16 10:13 | 51.18686 | 4.45944 | 46 ft | 21 kts | 104° |
| 2026-04-16 10:14 | 51.18649 | 4.46187 | 50 ft | 24 kts | 104° |
| 2026-04-16 10:14 | 51.18607 | 4.46461 | 49 ft | 27 kts | 104° |
| 2026-04-16 10:14 | 51.18578 | 4.46737 | 48 ft | 24 kts | 87° |
| 2026-04-16 10:14 | 51.18641 | 4.47001 | 44 ft | 27 kts | 56° |
| 2026-04-16 10:15 | 51.18740 | 4.47214 | 37 ft | 18 kts | 45° |
| 2026-04-16 10:15 | 51.18797 | 4.47206 | 37 ft | 7 kts | 290° |
| 2026-04-16 10:15 | 51.18805 | 4.47171 | 36 ft | 0 kts | 289° |
| 2026-04-16 10:15 | 51.18819 | 4.47108 | 35 ft | 33 kts | 290° |
| 2026-04-16 10:16 | 51.18990 | 4.46329 | 40 ft | 111 kts | 295° |
| 2026-04-16 10:16 | 51.19303 | 4.44884 | 244 ft | 152 kts | 284° |
| 2026-04-16 10:16 | 51.19689 | 4.43280 | 1105 ft | 158 kts | 279° |
| 2026-04-16 10:16 | 51.19873 | 4.41545 | 1956 ft | 158 kts | 264° |
| 2026-04-16 10:17 | 51.19699 | 4.39798 | 2651 ft | 165 kts | 245° |
| 2026-04-16 10:17 | 51.19223 | 4.38010 | 3225 ft | 187 kts | 239° |
| 2026-04-16 10:17 | 51.18637 | 4.36046 | 3759 ft | 210 kts | 238° |
| 2026-04-16 10:17 | 51.18014 | 4.33783 | 4344 ft | 234 kts | 242° |
| 2026-04-16 10:18 | 51.17489 | 4.31203 | 5083 ft | 253 kts | 251° |
| 2026-04-16 10:18 | 51.17180 | 4.28413 | 6163 ft | 257 kts | 256° |
| 2026-04-16 10:18 | 51.16928 | 4.25574 | 7232 ft | 261 kts | 257° |
| 2026-04-16 10:18 | 51.16665 | 4.22703 | 8326 ft | 263 kts | 256° |
| 2026-04-16 10:19 | 51.16395 | 4.19800 | 9392 ft | 268 kts | 261° |
| 2026-04-16 10:19 | 51.16469 | 4.16813 | 10447 ft | 272 kts | 275° |
| 2026-04-16 10:19 | 51.16895 | 4.13902 | 11464 ft | 275 kts | 279° |
| 2026-04-16 10:19 | 51.17336 | 4.10909 | 12405 ft | 280 kts | 278° |
| 2026-04-16 10:20 | 51.17773 | 4.07868 | 13382 ft | 283 kts | 278° |
| 2026-04-16 10:20 | 51.18209 | 4.04789 | 14318 ft | 287 kts | 278° |
| 2026-04-16 10:20 | 51.18646 | 4.01677 | 15218 ft | 288 kts | 279° |
| 2026-04-16 10:20 | 51.19083 | 3.98545 | 16087 ft | 291 kts | 279° |
| 2026-04-16 10:21 | 51.19524 | 3.95377 | 16955 ft | 294 kts | 279° |
| 2026-04-16 10:21 | 51.19967 | 3.92180 | 17828 ft | 297 kts | 279° |
| 2026-04-16 10:21 | 51.20412 | 3.88951 | 18668 ft | 300 kts | 280° |
| 2026-04-16 10:21 | 51.20854 | 3.85732 | 19391 ft | 303 kts | 280° |
| 2026-04-16 10:22 | 51.21306 | 3.82437 | 20116 ft | 306 kts | 280° |
| 2026-04-16 10:22 | 51.21760 | 3.79110 | 20855 ft | 308 kts | 280° |
| 2026-04-16 10:22 | 51.22216 | 3.75754 | 21581 ft | 311 kts | 280° |
| 2026-04-16 10:22 | 51.22675 | 3.72359 | 22299 ft | 314 kts | 280° |
| 2026-04-16 10:23 | 51.23137 | 3.68933 | 23012 ft | 318 kts | 280° |
| 2026-04-16 10:23 | 51.23602 | 3.65468 | 23705 ft | 321 kts | 280° |
| 2026-04-16 10:23 | 51.24072 | 3.61969 | 24298 ft | 324 kts | 280° |
| 2026-04-16 10:23 | 51.24540 | 3.58497 | 24887 ft | 326 kts | 280° |
| 2026-04-16 10:24 | 51.25018 | 3.54951 | 25453 ft | 328 kts | 280° |
| 2026-04-16 10:24 | 51.25497 | 3.51372 | 26023 ft | 331 kts | 279° |
| 2026-04-16 10:24 | 51.25900 | 3.47751 | 26592 ft | 332 kts | 275° |
| 2026-04-16 10:24 | 51.26022 | 3.44070 | 27157 ft | 333 kts | 266° |
| 2026-04-16 10:25 | 51.25785 | 3.40390 | 27765 ft | 333 kts | 263° |
| 2026-04-16 10:25 | 51.25524 | 3.36718 | 28332 ft | 334 kts | 264° |
| 2026-04-16 10:25 | 51.25356 | 3.32969 | 28645 ft | 343 kts | 266° |
| 2026-04-16 10:25 | 51.25240 | 3.29183 | 28953 ft | 350 kts | 265° |
| 2026-04-16 10:26 | 51.24991 | 3.25284 | 29298 ft | 356 kts | 265° |
| 2026-04-16 10:26 | 51.25029 | 3.21310 | 29694 ft | 362 kts | 274° |
| 2026-04-16 10:26 | 51.25410 | 3.17289 | 29836 ft | 375 kts | 280° |
| 2026-04-16 10:26 | 51.26177 | 3.13210 | 29780 ft | 391 kts | 288° |
| 2026-04-16 10:27 | 51.27275 | 3.09148 | 29787 ft | 406 kts | 292° |
| 2026-04-16 10:27 | 51.28697 | 3.05150 | 29780 ft | 421 kts | 298° |
| 2026-04-16 10:27 | 51.30426 | 3.01263 | 29642 ft | 439 kts | 304° |
| 2026-04-16 10:27 | 51.32462 | 2.97583 | 29258 ft | 456 kts | 307° |
| 2026-04-16 10:28 | 51.34412 | 2.93502 | 28597 ft | 469 kts | 300° |
| 2026-04-16 10:28 | 51.35609 | 2.90620 | 28031 ft | 476 kts | 299° |
| 2026-04-16 10:28 | 51.37315 | 2.86306 | 27011 ft | 478 kts | 303° |
| 2026-04-16 10:28 | 51.39032 | 2.81723 | 25560 ft | 484 kts | 304° |
| 2026-04-16 10:29 | 51.41002 | 2.77294 | 24390 ft | 491 kts | 309° |
| 2026-04-16 10:29 | 51.43057 | 2.72935 | 24217 ft | 485 kts | 302° |
| 2026-04-16 10:29 | 51.44899 | 2.68583 | 24756 ft | 473 kts | 299° |
| 2026-04-16 10:29 | 51.46516 | 2.63942 | 24902 ft | 473 kts | 295° |
| 2026-04-16 10:30 | 51.47840 | 2.59130 | 24248 ft | 485 kts | 288° |
| 2026-04-16 10:30 | 51.48753 | 2.53916 | 23090 ft | 487 kts | 281° |
| 2026-04-16 10:30 | 51.49295 | 2.48536 | 21721 ft | 490 kts | 275° |
| 2026-04-16 10:30 | 51.49430 | 2.43064 | 20215 ft | 493 kts | 268° |
| 2026-04-16 10:31 | 51.49285 | 2.37544 | 19075 ft | 497 kts | 268° |
| 2026-04-16 10:31 | 51.49257 | 2.32005 | 18891 ft | 495 kts | 271° |
| 2026-04-16 10:31 | 51.49380 | 2.26504 | 18788 ft | 492 kts | 271° |
| 2026-04-16 10:31 | 51.49430 | 2.21044 | 18825 ft | 488 kts | 268° |
| 2026-04-16 10:32 | 51.49199 | 2.15628 | 18836 ft | 486 kts | 263° |
| 2026-04-16 10:32 | 51.48737 | 2.10262 | 18831 ft | 485 kts | 261° |
| 2026-04-16 10:32 | 51.48210 | 2.04993 | 18869 ft | 484 kts | 261° |
| 2026-04-16 10:32 | 51.47651 | 1.99684 | 18960 ft | 482 kts | 260° |
| 2026-04-16 10:33 | 51.47120 | 1.94358 | 18859 ft | 485 kts | 262° |
| 2026-04-16 10:33 | 51.46669 | 1.88972 | 18673 ft | 488 kts | 261° |
| 2026-04-16 10:33 | 51.46134 | 1.83574 | 18166 ft | 494 kts | 260° |
| 2026-04-16 10:33 | 51.45488 | 1.78163 | 17073 ft | 485 kts | 258° |
| 2026-04-16 10:34 | 51.44858 | 1.72990 | 16453 ft | 460 kts | 259° |
| 2026-04-16 10:34 | 51.44300 | 1.68083 | 16201 ft | 437 kts | 258° |
| 2026-04-16 10:34 | 51.43632 | 1.63474 | 15530 ft | 426 kts | 256° |
| 2026-04-16 10:34 | 51.42982 | 1.58852 | 14433 ft | 425 kts | 258° |
| 2026-04-16 10:35 | 51.42522 | 1.54160 | 13234 ft | 426 kts | 261° |
| 2026-04-16 10:35 | 51.42027 | 1.49560 | 12547 ft | 411 kts | 256° |
| 2026-04-16 10:35 | 51.41379 | 1.45191 | 11932 ft | 396 kts | 255° |
| 2026-04-16 10:35 | 51.40755 | 1.40959 | 11192 ft | 386 kts | 255° |
| 2026-04-16 10:36 | 51.40148 | 1.36815 | 10460 ft | 379 kts | 257° |
| 2026-04-16 10:36 | 51.39640 | 1.32749 | 10277 ft | 367 kts | 257° |
| 2026-04-16 10:36 | 51.39132 | 1.28788 | 10386 ft | 359 kts | 255° |
| 2026-04-16 10:36 | 51.38534 | 1.24938 | 10433 ft | 355 kts | 255° |
| 2026-04-16 10:37 | 51.37968 | 1.21122 | 10238 ft | 359 kts | 254° |
| 2026-04-16 10:37 | 51.37353 | 1.17233 | 9876 ft | 359 kts | 255° |
| 2026-04-16 10:37 | 51.36778 | 1.13412 | 9458 ft | 347 kts | 255° |
| 2026-04-16 10:37 | 51.36227 | 1.09723 | 9175 ft | 332 kts | 255° |
| 2026-04-16 10:38 | 51.35681 | 1.06233 | 8933 ft | 317 kts | 254° |
| 2026-04-16 10:38 | 51.35136 | 1.02876 | 8587 ft | 307 kts | 254° |
| 2026-04-16 10:38 | 51.34627 | 0.99589 | 8149 ft | 302 kts | 254° |
| 2026-04-16 10:38 | 51.34112 | 0.96350 | 7653 ft | 299 kts | 254° |
| 2026-04-16 10:39 | 51.33637 | 0.93185 | 7565 ft | 283 kts | 255° |
| 2026-04-16 10:39 | 51.33215 | 0.90208 | 7616 ft | 269 kts | 255° |
| 2026-04-16 10:39 | 51.32788 | 0.87328 | 7617 ft | 270 kts | 253° |
| 2026-04-16 10:39 | 51.32317 | 0.84415 | 7626 ft | 271 kts | 253° |
| 2026-04-16 10:40 | 51.31852 | 0.81518 | 7687 ft | 269 kts | 253° |
| 2026-04-16 10:40 | 51.31366 | 0.78636 | 7699 ft | 269 kts | 252° |
| 2026-04-16 10:40 | 51.30860 | 0.75748 | 7546 ft | 270 kts | 253° |
| 2026-04-16 10:40 | 51.30381 | 0.72898 | 7507 ft | 259 kts | 252° |
| 2026-04-16 10:41 | 51.29908 | 0.70204 | 7420 ft | 246 kts | 252° |
| 2026-04-16 10:41 | 51.29447 | 0.67638 | 7388 ft | 233 kts | 251° |
| 2026-04-16 10:41 | 51.29005 | 0.65218 | 7364 ft | 221 kts | 252° |
| 2026-04-16 10:41 | 51.28642 | 0.62919 | 7291 ft | 210 kts | 253° |
| 2026-04-16 10:42 | 51.28308 | 0.60705 | 7246 ft | 200 kts | 254° |
| 2026-04-16 10:42 | 51.28021 | 0.58541 | 7000 ft | 200 kts | 254° |
| 2026-04-16 10:42 | 51.27672 | 0.56348 | 6691 ft | 206 kts | 252° |
| 2026-04-16 10:42 | 51.27320 | 0.54112 | 6627 ft | 210 kts | 252° |
| 2026-04-16 10:43 | 51.26953 | 0.51828 | 6515 ft | 215 kts | 253° |
| 2026-04-16 10:43 | 51.26585 | 0.49459 | 6292 ft | 221 kts | 253° |
| 2026-04-16 10:43 | 51.26189 | 0.47084 | 5934 ft | 223 kts | 252° |
| 2026-04-16 10:43 | 51.25800 | 0.44644 | 5364 ft | 233 kts | 254° |
| 2026-04-16 10:44 | 51.25447 | 0.42033 | 4756 ft | 244 kts | 253° |
| 2026-04-16 10:44 | 51.24788 | 0.39650 | 4577 ft | 233 kts | 235° |
| 2026-04-16 10:44 | 51.23783 | 0.37713 | 4514 ft | 219 kts | 226° |
| 2026-04-16 10:44 | 51.22779 | 0.36000 | 4506 ft | 204 kts | 227° |
| 2026-04-16 10:45 | 51.21856 | 0.34339 | 4365 ft | 197 kts | 229° |
| 2026-04-16 10:45 | 51.20970 | 0.32687 | 4150 ft | 195 kts | 229° |
| 2026-04-16 10:45 | 51.20125 | 0.31022 | 3974 ft | 193 kts | 234° |
| 2026-04-16 10:45 | 51.19515 | 0.29072 | 3603 ft | 201 kts | 249° |
| 2026-04-16 10:46 | 51.19220 | 0.26851 | 3256 ft | 209 kts | 261° |
| 2026-04-16 10:46 | 51.19215 | 0.24480 | 2809 ft | 217 kts | 270° |
| 2026-04-16 10:46 | 51.19413 | 0.22167 | 2649 ft | 209 kts | 276° |
| 2026-04-16 10:46 | 51.19755 | 0.19981 | 2585 ft | 197 kts | 281° |
| 2026-04-16 10:47 | 51.20146 | 0.17978 | 2564 ft | 181 kts | 277° |
| 2026-04-16 10:47 | 51.20360 | 0.16041 | 2559 ft | 179 kts | 271° |
| 2026-04-16 10:47 | 51.20513 | 0.14004 | 2079 ft | 190 kts | 271° |
| 2026-04-16 10:47 | 51.20632 | 0.12022 | 2169 ft | 167 kts | 267° |
| 2026-04-16 10:48 | 51.20583 | 0.10253 | 2158 ft | 152 kts | 258° |
| 2026-04-16 10:48 | 51.20376 | 0.08670 | 2107 ft | 141 kts | 248° |
| 2026-04-16 10:48 | 51.19975 | 0.07282 | 1998 ft | 138 kts | 238° |
| 2026-04-16 10:48 | 51.19518 | 0.05878 | 2018 ft | 146 kts | 241° |
| 2026-04-16 10:49 | 51.19099 | 0.04434 | 2233 ft | 145 kts | 242° |
| 2026-04-16 10:49 | 51.18667 | 0.03005 | 2334 ft | 143 kts | 240° |
| 2026-04-16 10:49 | 51.18222 | 0.01559 | 2385 ft | 145 kts | 241° |
| 2026-04-16 10:49 | 51.17785 | 0.00111 | 2297 ft | 147 kts | 242° |
| 2026-04-16 10:50 | 51.17368 | -0.01415 | 2111 ft | 153 kts | 246° |
| 2026-04-16 10:50 | 51.17060 | -0.03015 | 1856 ft | 150 kts | 252° |
| 2026-04-16 10:50 | 51.16833 | -0.04601 | 1644 ft | 143 kts | 253° |
| 2026-04-16 10:50 | 51.16609 | -0.06122 | 1427 ft | 139 kts | 251° |
| 2026-04-16 10:51 | 51.16403 | -0.07588 | 1268 ft | 135 kts | 253° |
| 2026-04-16 10:51 | 51.16203 | -0.09086 | 1024 ft | 141 kts | 255° |
| 2026-04-16 10:51 | 51.15972 | -0.10565 | 928 ft | 139 kts | 252° |
| 2026-04-16 10:51 | 51.15761 | -0.12072 | 755 ft | 139 kts | 253° |
| 2026-04-16 10:52 | 51.15549 | -0.13560 | 617 ft | 137 kts | 257° |
| 2026-04-16 10:52 | 51.15355 | -0.15009 | 441 ft | 132 kts | 257° |
| 2026-04-16 10:52 | 51.15166 | -0.16429 | 283 ft | 134 kts | 255° |
| 2026-04-16 10:52 | 51.14973 | -0.17864 | 218 ft | 126 kts | 255° |
| 2026-04-16 10:53 | 51.14805 | -0.19074 | 210 ft | 97 kts | 258° |
| 2026-04-16 10:53 | 51.14698 | -0.19922 | 214 ft | 57 kts | 257° |
| 2026-04-16 10:53 | 51.14652 | -0.20336 | 214 ft | 24 kts | 267° |
| 2026-04-16 10:53 | 51.14668 | -0.20549 | 208 ft | 16 kts | 285° |
| 2026-04-16 10:54 | 51.14696 | -0.20675 | 208 ft | 8 kts | 301° |
| 2026-04-16 10:54 | 51.14729 | -0.20702 | 215 ft | 6 kts | 355° |
| 2026-04-16 10:54 | 51.14791 | -0.20676 | 214 ft | 12 kts | 24° |
| 2026-04-16 10:54 | 51.14861 | -0.20588 | 211 ft | 9 kts | 52° |
| 2026-04-16 10:55 | 51.14863 | -0.20584 | 208 ft | 2 kts | 55° |
| 2026-04-16 10:55 | 51.14871 | -0.20561 | 213 ft | 0 kts | 64° |
| 2026-04-16 10:55 | 51.14875 | -0.20541 | 211 ft | 5 kts | 71° |
| 2026-04-16 10:55 | 51.14883 | -0.20483 | 203 ft | 3 kts | 80° |
| 2026-04-16 10:56 | 51.14884 | -0.20473 | 203 ft | 0 kts | 79° |
| 2026-04-16 10:58 | 51.14884 | -0.20471 | 206 ft | 4 kts | 79° |